Time;durP1;ratioP1;P1;durP2;ratioP2;P2;SDS_P1;SDS_P2;PMS_P1;PMS_P2;Temp;Humidity;BMP_temperature;BMP_pressure;BME280_temperature;BME280_humidity;BME280_pressure;Samples;Min_cycle;Max_cycle;Signal;HPM_P1;HPM_P2
2022/09/15 00:02:36;;;;;;;5.72;0.90;;;16.20;99.90;;;;;;4994049;28;20053;-78
2022/09/15 00:05:23;;;;;;;10.07;1.30;;;16.20;99.90;;;;;;4979588;28;20050;-80
2022/09/15 00:08:11;;;;;;;8.73;1.92;;;16.20;99.90;;;;;;4983263;28;20049;-79
2022/09/15 00:11:05;;;;;;;9.50;0.80;;;16.20;99.90;;;;;;4994008;28;20104;-77
2022/09/15 00:13:52;;;;;;;7.78;1.10;;;16.30;99.90;;;;;;4994418;28;20391;-79
2022/09/15 00:16:38;;;;;;;10.95;1.63;;;16.30;99.90;;;;;;5009726;28;20045;-79
2022/09/15 00:19:24;;;;;;;6.47;1.00;;;16.30;99.90;;;;;;5011574;28;20099;-80
2022/09/15 00:22:11;;;;;;;6.63;0.95;;;16.30;99.90;;;;;;5012281;28;20449;-80
2022/09/15 00:24:57;;;;;;;7.38;1.08;;;16.30;99.90;;;;;;4994051;28;20057;-79
2022/09/15 00:27:43;;;;;;;9.20;1.05;;;16.30;99.90;;;;;;4998328;28;20049;-78
2022/09/15 00:30:30;;;;;;;12.10;1.60;;;16.30;99.90;;;;;;4996928;28;20375;-79
2022/09/15 00:33:17;;;;;;;4.65;1.00;;;16.20;99.90;;;;;;5010263;28;20061;-78
2022/09/15 00:36:09;;;;;;;5.80;0.88;;;16.20;99.90;;;;;;4993103;28;20054;-79
2022/09/15 00:38:56;;;;;;;8.50;1.05;;;16.20;99.90;;;;;;5010698;28;20049;-79
2022/09/15 00:41:42;;;;;;;4.80;0.93;;;16.20;99.90;;;;;;4992979;28;20061;-78
2022/09/15 00:44:34;;;;;;;9.27;1.63;;;16.20;99.90;;;;;;5009950;28;20038;-79
2022/09/15 00:47:35;;;;;;;11.40;2.42;;;16.20;99.90;;;;;;5009846;28;20058;-79
2022/09/15 00:50:21;;;;;;;8.05;1.73;;;16.20;99.90;;;;;;5009549;28;20053;-78
2022/09/15 00:53:11;;;;;;;9.82;2.17;;;16.20;99.90;;;;;;5009697;28;20045;-79
2022/09/15 00:56:00;;;;;;;6.90;1.13;;;16.10;99.90;;;;;;4993888;28;20046;-79
2022/09/15 00:59:00;;;;;;;5.78;1.08;;;16.10;99.90;;;;;;5009680;28;20046;-79
2022/09/15 01:01:51;;;;;;;11.43;2.13;;;16.10;99.90;;;;;;5010202;28;20401;-79
2022/09/15 01:04:38;;;;;;;10.20;1.75;;;16.10;99.90;;;;;;4993225;28;20141;-79
2022/09/15 01:07:34;;;;;;;8.18;1.30;;;16.10;99.90;;;;;;5010709;28;20103;-79
2022/09/15 01:10:30;;;;;;;9.75;1.10;;;16.10;99.90;;;;;;4994201;28;20488;-80
2022/09/15 01:13:17;;;;;;;9.32;1.67;;;16.10;99.90;;;;;;4994457;28;20486;-79
2022/09/15 01:16:03;;;;;;;9.13;1.40;;;16.10;99.90;;;;;;5013843;28;20038;-79
2022/09/15 01:18:55;;;;;;;9.40;1.60;;;16.10;99.90;;;;;;5012981;28;20085;-78
2022/09/15 01:21:53;;;;;;;10.18;1.73;;;16.10;99.90;;;;;;5013550;28;20057;-76
2022/09/15 01:25:05;;;;;;;11.95;2.42;;;16.10;99.90;;;;;;5014137;28;20046;-80
2022/09/15 01:28:17;;;;;;;9.32;1.95;;;16.10;99.90;;;;;;5013846;28;20137;-79
2022/09/15 01:31:06;;;;;;;14.57;2.55;;;16.00;99.90;;;;;;5013583;28;20096;-79
2022/09/15 01:34:09;;;;;;;6.85;1.27;;;15.80;99.90;;;;;;4997020;28;20155;-78
2022/09/15 01:37:03;;;;;;;7.43;1.40;;;15.70;99.90;;;;;;4981593;28;20054;-79
2022/09/15 01:39:51;;;;;;;8.45;1.52;;;15.60;99.90;;;;;;5013453;28;20452;-79
2022/09/15 01:42:41;;;;;;;7.78;1.63;;;15.40;99.90;;;;;;4981672;28;20058;-77
2022/09/15 01:45:31;;;;;;;9.90;1.52;;;15.30;99.90;;;;;;5012562;28;20046;-79
2022/09/15 01:48:20;;;;;;;7.70;1.60;;;15.10;99.90;;;;;;5012704;28;20204;-78
2022/09/15 01:51:07;;;;;;;7.90;1.48;;;15.00;99.90;;;;;;5012684;28;20165;-79
2022/09/15 01:53:55;;;;;;;20.55;3.15;;;15.00;99.90;;;;;;5012325;28;20100;-79
2022/09/15 01:56:42;;;;;;;13.60;2.80;;;14.90;99.90;;;;;;5014073;28;20064;-78
2022/09/15 01:59:28;;;;;;;12.68;1.80;;;14.80;99.90;;;;;;5013202;28;20591;-79
2022/09/15 02:02:53;;;;;;;9.20;1.77;;;14.80;99.90;;;;;;5013910;28;20054;-77
2022/09/15 02:05:46;;;;;;;9.35;1.48;;;14.80;99.90;;;;;;4973040;28;20394;-77
2022/09/15 02:08:46;;;;;;;10.07;1.17;;;14.70;99.90;;;;;;4998674;28;20100;-78
2022/09/15 02:11:35;;;;;;;8.15;1.65;;;14.80;99.90;;;;;;4982216;28;20049;-77
2022/09/15 02:14:55;;;;;;;5.55;1.13;;;14.80;99.90;;;;;;4999417;28;20050;-76
2022/09/15 02:17:49;;;;;;;7.25;1.13;;;14.80;99.90;;;;;;4994573;28;20061;-78
2022/09/15 02:20:51;;;;;;;8.23;1.30;;;14.80;99.90;;;;;;5001398;28;20366;-77
2022/09/15 02:23:42;;;;;;;6.13;0.98;;;14.80;99.90;;;;;;4995509;28;20046;-78
2022/09/15 02:26:32;;;;;;;7.30;1.25;;;14.80;99.90;;;;;;4982387;28;20136;-79
2022/09/15 02:29:20;;;;;;;9.07;1.42;;;14.90;99.90;;;;;;4995716;28;20046;-80
2022/09/15 02:32:08;;;;;;;9.10;1.50;;;14.90;99.90;;;;;;5012921;28;20054;-78
2022/09/15 02:34:57;;;;;;;12.40;1.30;;;14.90;99.90;;;;;;5013104;28;20046;-77
2022/09/15 02:37:44;;;;;;;7.40;1.27;;;15.00;99.90;;;;;;4981350;28;20045;-79
2022/09/15 02:40:31;;;;;;;9.60;1.63;;;15.00;99.90;;;;;;5013887;28;20049;-78
2022/09/15 02:43:18;;;;;;;8.73;1.23;;;15.00;99.90;;;;;;5012531;28;20045;-77
2022/09/15 02:46:04;;;;;;;6.40;1.17;;;15.10;99.90;;;;;;5014173;28;20046;-79
2022/09/15 02:48:50;;;;;;;8.52;1.30;;;15.20;99.90;;;;;;5012640;28;20045;-79
2022/09/15 02:51:37;;;;;;;9.32;1.75;;;15.20;99.90;;;;;;5015171;28;20058;-77
2022/09/15 02:54:23;;;;;;;6.65;1.08;;;15.30;99.90;;;;;;4983845;28;20053;-77
2022/09/15 02:57:09;;;;;;;11.70;1.95;;;15.30;99.90;;;;;;4986209;28;20097;-78
2022/09/15 03:00:18;;;;;;;13.75;2.08;;;15.40;99.90;;;;;;4997875;28;20160;-77
2022/09/15 03:03:02;;;;;;;11.73;2.00;;;15.40;99.90;;;;;;5003635;28;20127;-79
2022/09/15 03:05:48;;;;;;;12.18;1.70;;;15.50;99.90;;;;;;4994592;28;20052;-78
2022/09/15 03:08:34;;;;;;;16.38;2.78;;;15.50;99.90;;;;;;4996345;28;20042;-77
2022/09/15 03:11:22;;;;;;;12.02;1.98;;;15.40;99.90;;;;;;4993060;28;20137;-79
2022/09/15 03:14:08;;;;;;;15.88;1.80;;;15.50;99.90;;;;;;5010903;28;20085;-79
2022/09/15 03:16:54;;;;;;;8.75;2.05;;;15.50;99.90;;;;;;4998422;28;20079;-79
2022/09/15 03:19:44;;;;;;;16.65;2.00;;;15.40;99.90;;;;;;4995043;28;20049;-78
2022/09/15 03:22:30;;;;;;;10.65;1.80;;;15.40;99.90;;;;;;4994064;28;20366;-79
2022/09/15 03:25:17;;;;;;;10.27;2.28;;;15.30;99.90;;;;;;4980794;28;20061;-78
2022/09/15 03:28:03;;;;;;;10.95;2.08;;;15.30;99.90;;;;;;5011583;28;20129;-78
2022/09/15 03:30:49;;;;;;;11.02;1.60;;;15.40;99.90;;;;;;5012236;28;20140;-79
2022/09/15 03:33:36;;;;;;;8.82;1.23;;;15.40;99.90;;;;;;5012055;28;20057;-79
2022/09/15 03:36:22;;;;;;;8.45;1.25;;;15.40;99.90;;;;;;4994645;28;20062;-79
2022/09/15 03:39:11;;;;;;;5.63;1.20;;;15.40;99.90;;;;;;5012197;28;20451;-79
2022/09/15 03:41:57;;;;;;;4.35;1.13;;;15.40;99.90;;;;;;5011736;28;20057;-78
2022/09/15 03:44:43;;;;;;;9.60;1.35;;;15.40;99.90;;;;;;4979993;28;20042;-78
2022/09/15 03:47:32;;;;;;;9.85;1.17;;;15.40;99.90;;;;;;5009941;28;20057;-79
2022/09/15 03:50:18;;;;;;;12.02;1.55;;;15.30;99.90;;;;;;4993247;28;20045;-78
2022/09/15 03:53:05;;;;;;;9.82;1.35;;;15.30;99.90;;;;;;5011296;28;20545;-78
2022/09/15 03:55:51;;;;;;;11.15;1.50;;;15.30;99.90;;;;;;5010985;28;20524;-78
2022/09/15 03:58:37;;;;;;;9.95;1.10;;;15.30;99.90;;;;;;5011755;28;20050;-79
2022/09/15 04:01:24;;;;;;;10.90;1.27;;;15.30;99.90;;;;;;5010691;28;20081;-78
2022/09/15 04:04:11;;;;;;;8.45;2.20;;;15.40;99.90;;;;;;4993919;28;20061;-79
2022/09/15 04:06:57;;;;;;;6.97;1.15;;;15.40;99.90;;;;;;4994421;28;20042;-77
2022/09/15 04:09:44;;;;;;;5.25;1.23;;;15.40;99.90;;;;;;4998543;28;20108;-78
2022/09/15 04:12:31;;;;;;;13.63;1.60;;;15.40;99.90;;;;;;4995287;28;20057;-77
2022/09/15 04:15:19;;;;;;;8.57;1.30;;;15.40;99.90;;;;;;5011081;28;20050;-79
2022/09/15 04:18:05;;;;;;;7.50;1.38;;;15.40;99.90;;;;;;4993681;28;20066;-79
2022/09/15 04:20:57;;;;;;;5.70;1.20;;;15.50;99.90;;;;;;4994427;28;20045;-80
2022/09/15 04:23:44;;;;;;;6.40;1.10;;;15.50;99.90;;;;;;4995265;28;20046;-81
2022/09/15 04:26:35;;;;;;;11.82;1.60;;;15.40;99.90;;;;;;5011315;28;20081;-80
2022/09/15 04:29:22;;;;;;;5.75;1.33;;;15.40;99.90;;;;;;4993238;28;20100;-79
2022/09/15 04:32:08;;;;;;;5.80;1.30;;;15.40;99.90;;;;;;4993253;28;20112;-79
2022/09/15 04:34:55;;;;;;;5.63;1.45;;;15.30;99.90;;;;;;4995504;28;20081;-79
2022/09/15 04:37:41;;;;;;;8.77;1.58;;;15.40;99.90;;;;;;4996388;28;20057;-78
2022/09/15 04:40:27;;;;;;;13.98;2.42;;;15.40;99.80;;;;;;5010116;28;20041;-79
2022/09/15 04:43:14;;;;;;;8.13;1.48;;;15.30;99.90;;;;;;4978617;28;20104;-79
2022/09/15 04:46:00;;;;;;;9.40;1.80;;;15.30;99.90;;;;;;4993277;28;20443;-77
2022/09/15 04:48:47;;;;;;;6.65;1.20;;;15.30;99.90;;;;;;4994831;28;20453;-78
2022/09/15 04:51:33;;;;;;;4.43;1.45;;;15.30;99.10;;;;;;5013113;28;20050;-79
2022/09/15 04:54:20;;;;;;;5.70;1.40;;;15.40;99.00;;;;;;5014292;28;20042;-79
2022/09/15 04:57:06;;;;;;;6.60;1.17;;;15.40;99.20;;;;;;5014381;28;20105;-80
2022/09/15 04:59:52;;;;;;;7.88;1.55;;;15.50;99.40;;;;;;4996329;28;20058;-79
2022/09/15 05:02:38;;;;;;;7.50;1.90;;;15.50;99.90;;;;;;5014797;28;20046;-79
2022/09/15 05:05:25;;;;;;;8.80;2.08;;;15.50;99.90;;;;;;5014484;28;20042;-79
2022/09/15 05:08:11;;;;;;;11.40;1.50;;;15.50;99.90;;;;;;4996967;28;20434;-79
2022/09/15 05:10:59;;;;;;;10.23;1.52;;;15.50;99.90;;;;;;4998540;28;20165;-79
2022/09/15 05:13:46;;;;;;;9.00;1.67;;;15.60;99.90;;;;;;4999407;28;20046;-77
2022/09/15 05:16:33;;;;;;;6.13;1.40;;;15.60;99.90;;;;;;4997430;28;20088;-79
2022/09/15 05:19:19;;;;;;;9.13;1.88;;;15.50;99.90;;;;;;4997416;28;20050;-78
2022/09/15 05:22:05;;;;;;;7.95;1.33;;;15.40;99.90;;;;;;4982996;28;20514;-78
2022/09/15 05:24:52;;;;;;;6.18;1.13;;;15.40;99.90;;;;;;5015231;28;20085;-78
2022/09/15 05:27:41;;;;;;;7.93;1.48;;;15.40;99.90;;;;;;5014291;28;20405;-79
2022/09/15 05:30:27;;;;;;;6.50;1.27;;;15.50;99.90;;;;;;5012251;28;20050;-79
2022/09/15 05:33:14;;;;;;;8.07;0.98;;;15.50;99.90;;;;;;5014195;28;20136;-80
2022/09/15 05:36:01;;;;;;;5.70;0.90;;;15.50;99.90;;;;;;4999986;28;20513;-79
2022/09/15 05:38:47;;;;;;;7.90;1.15;;;15.50;99.90;;;;;;4997748;28;20053;-79
2022/09/15 05:41:33;;;;;;;12.65;1.75;;;15.60;99.90;;;;;;4999160;28;20056;-79
2022/09/15 05:44:22;;;;;;;10.23;1.98;;;15.60;99.90;;;;;;4995454;28;20046;-79
2022/09/15 05:47:09;;;;;;;6.05;1.20;;;15.60;99.90;;;;;;4996223;28;20093;-80
2022/09/15 05:49:55;;;;;;;5.85;1.30;;;15.60;99.90;;;;;;5013451;28;20046;-78
2022/09/15 05:52:41;;;;;;;8.73;1.38;;;15.60;99.90;;;;;;4995479;28;20054;-80
2022/09/15 05:55:28;;;;;;;9.20;1.40;;;15.60;99.90;;;;;;5013041;28;20042;-78
2022/09/15 05:58:14;;;;;;;6.75;0.98;;;15.70;99.90;;;;;;5012043;28;20042;-79
2022/09/15 06:01:06;;;;;;;7.47;1.30;;;15.70;99.90;;;;;;4995658;28;20065;-79
2022/09/15 06:03:54;;;;;;;6.05;0.68;;;15.70;99.90;;;;;;4997943;28;20064;-80
2022/09/15 06:06:40;;;;;;;10.00;1.00;;;15.70;99.90;;;;;;4995112;28;20054;-78
2022/09/15 06:09:26;;;;;;;5.82;0.73;;;15.70;99.90;;;;;;5013376;28;20049;-78
2022/09/15 06:12:13;;;;;;;5.95;1.45;;;15.70;99.90;;;;;;4994632;28;20124;-78
2022/09/15 06:14:59;;;;;;;2.92;0.60;;;15.80;99.90;;;;;;5012325;28;20100;-79
2022/09/15 06:17:45;;;;;;;9.30;1.15;;;15.80;99.90;;;;;;4981784;28;20424;-78
2022/09/15 06:20:32;;;;;;;10.82;1.20;;;15.80;99.90;;;;;;4997830;28;20057;-79
2022/09/15 06:23:18;;;;;;;7.38;1.20;;;15.80;99.90;;;;;;5011656;28;20052;-80
2022/09/15 06:26:06;;;;;;;8.20;1.52;;;15.80;99.90;;;;;;5011819;28;20054;-79
2022/09/15 06:28:55;;;;;;;8.85;1.40;;;15.90;99.90;;;;;;5012279;28;20476;-79
2022/09/15 06:31:41;;;;;;;7.60;1.40;;;15.90;99.90;;;;;;4995035;28;20089;-77
2022/09/15 06:34:34;;;;;;;8.90;1.40;;;15.90;99.90;;;;;;5011748;28;20058;-80
2022/09/15 06:37:20;;;;;;;5.70;1.13;;;16.00;99.90;;;;;;4996721;28;20089;-79
2022/09/15 06:40:07;;;;;;;11.52;1.20;;;16.00;99.90;;;;;;4994669;28;20054;-80
2022/09/15 06:42:56;;;;;;;7.55;1.40;;;16.10;99.90;;;;;;5012517;28;20042;-81
2022/09/15 06:45:42;;;;;;;6.18;1.40;;;16.30;99.90;;;;;;5013592;28;20061;-78
2022/09/15 06:48:31;;;;;;;11.30;1.60;;;16.30;99.90;;;;;;4993750;28;20085;-78
2022/09/15 06:51:22;;;;;;;10.38;1.73;;;16.30;99.90;;;;;;4993953;28;20038;-80
2022/09/15 06:54:09;;;;;;;8.65;1.48;;;16.30;99.90;;;;;;4995123;28;20046;-80
2022/09/15 06:56:55;;;;;;;7.63;1.95;;;16.30;99.90;;;;;;4993525;28;20215;-80
2022/09/15 06:59:41;;;;;;;8.10;1.80;;;16.30;99.90;;;;;;4994266;28;20103;-81
2022/09/15 07:02:28;;;;;;;10.00;1.80;;;16.30;99.90;;;;;;5011219;28;20042;-79
2022/09/15 07:05:14;;;;;;;9.23;2.05;;;16.30;99.90;;;;;;5011858;28;20145;-81
2022/09/15 07:08:00;;;;;;;10.63;1.70;;;16.10;99.90;;;;;;4993634;28;20050;-78
2022/09/15 07:10:47;;;;;;;7.75;1.55;;;16.00;99.90;;;;;;4992795;28;20041;-79
2022/09/15 07:13:33;;;;;;;10.18;1.80;;;15.90;99.90;;;;;;4996966;28;20397;-78
2022/09/15 07:16:21;;;;;;;9.00;1.75;;;15.80;99.90;;;;;;4993618;28;20135;-79
2022/09/15 07:19:10;;;;;;;10.35;1.58;;;15.80;99.90;;;;;;4967690;28;20049;-79
2022/09/15 07:21:56;;;;;;;12.45;1.30;;;15.80;99.90;;;;;;4995229;28;20064;-79
2022/09/15 07:24:42;;;;;;;7.32;1.10;;;15.80;99.90;;;;;;5010836;28;20147;-78
2022/09/15 07:27:30;;;;;;;11.90;1.50;;;15.90;99.90;;;;;;5010914;28;20080;-78
2022/09/15 07:30:16;;;;;;;7.30;1.40;;;16.00;99.90;;;;;;4994380;28;20051;-79
2022/09/15 07:33:05;;;;;;;7.90;1.63;;;16.10;99.90;;;;;;4993062;28;20046;-79
2022/09/15 07:35:51;;;;;;;10.20;1.60;;;16.20;99.90;;;;;;4993583;28;20058;-79
2022/09/15 07:38:40;;;;;;;10.18;1.20;;;16.30;99.90;;;;;;5011188;28;20050;-79
2022/09/15 07:41:28;;;;;;;10.68;1.83;;;16.40;99.90;;;;;;4993640;28;20100;-76
2022/09/15 07:44:15;;;;;;;9.70;2.58;;;16.50;99.90;;;;;;5012013;28;20052;-80
2022/09/15 07:47:01;;;;;;;6.88;1.08;;;16.40;99.90;;;;;;4993818;28;20043;-79
2022/09/15 07:49:48;;;;;;;9.82;1.52;;;16.40;99.90;;;;;;4996799;28;20050;-81
2022/09/15 07:52:34;;;;;;;11.63;2.42;;;16.30;99.90;;;;;;4992970;28;20417;-79
2022/09/15 07:55:21;;;;;;;8.32;1.27;;;16.30;99.90;;;;;;4996818;28;20049;-80
2022/09/15 07:58:07;;;;;;;9.07;1.83;;;16.30;99.90;;;;;;4993194;28;20057;-78
2022/09/15 08:00:53;;;;;;;8.05;1.20;;;16.40;99.90;;;;;;4993858;28;20046;-80
2022/09/15 08:03:44;;;;;;;8.05;1.42;;;16.40;99.90;;;;;;5010302;28;20045;-79
2022/09/15 08:06:30;;;;;;;8.48;1.70;;;16.50;99.90;;;;;;4994591;28;20050;-80
2022/09/15 08:09:16;;;;;;;8.07;1.80;;;16.90;99.90;;;;;;5012273;28;20041;-80
2022/09/15 08:12:04;;;;;;;8.70;1.88;;;17.30;99.90;;;;;;5011154;28;20078;-80
2022/09/15 08:14:50;;;;;;;8.20;1.48;;;17.80;99.90;;;;;;5011282;28;20511;-80
2022/09/15 08:17:36;;;;;;;10.80;1.63;;;18.00;99.80;;;;;;5010292;28;20076;-81
2022/09/15 08:20:22;;;;;;;7.10;1.60;;;17.80;99.90;;;;;;5010485;28;20116;-79
2022/09/15 08:23:10;;;;;;;16.35;2.35;;;17.70;99.90;;;;;;4993017;28;20092;-80
2022/09/15 08:25:56;;;;;;;20.60;3.88;;;17.50;99.90;;;;;;4993624;28;20140;-77
2022/09/15 08:28:42;;;;;;;13.02;2.42;;;17.10;99.90;;;;;;4995067;28;20064;-77
2022/09/15 08:31:28;;;;;;;12.30;2.33;;;16.70;99.90;;;;;;5011168;28;20074;-76
2022/09/15 08:34:15;;;;;;;11.30;1.73;;;16.40;99.90;;;;;;4981691;28;20490;-78
2022/09/15 08:37:02;;;;;;;12.65;3.13;;;16.20;99.90;;;;;;4993523;28;20054;-77
2022/09/15 08:39:48;;;;;;;13.27;2.30;;;16.00;99.90;;;;;;4996126;28;20071;-77
2022/09/15 08:42:35;;;;;;;13.85;2.08;;;16.10;99.90;;;;;;4997596;28;20491;-78
2022/09/15 08:45:29;;;;;;;11.32;1.55;;;16.10;99.90;;;;;;5001728;28;20046;-80
2022/09/15 08:48:19;;;;;;;8.10;1.50;;;16.20;99.90;;;;;;5015045;28;20062;-78
2022/09/15 08:51:13;;;;;;;14.02;1.98;;;16.20;99.90;;;;;;5010748;28;20058;-78
2022/09/15 08:54:06;;;;;;;10.50;2.22;;;16.10;99.90;;;;;;5012687;28;20053;-76
2022/09/15 08:56:55;;;;;;;8.10;1.60;;;16.10;99.90;;;;;;5011199;28;20053;-81
2022/09/15 08:59:42;;;;;;;10.82;1.73;;;16.10;99.90;;;;;;4980140;28;20102;-78
2022/09/15 09:02:54;;;;;;;9.65;1.70;;;16.10;99.90;;;;;;4995320;28;20107;-80
2022/09/15 09:05:50;;;;;;;9.48;1.30;;;16.20;99.90;;;;;;5006495;28;20069;-79
2022/09/15 09:09:14;;;;;;;8.65;1.60;;;16.30;99.90;;;;;;5004956;28;20506;-80
2022/09/15 09:12:23;;;;;;;11.30;1.55;;;16.40;99.90;;;;;;5008015;28;20405;-79
2022/09/15 09:15:41;;;;;;;7.20;1.40;;;16.40;99.90;;;;;;4991909;28;20577;-79
2022/09/15 09:18:46;;;;;;;7.78;1.10;;;16.40;99.90;;;;;;5011156;28;20042;-79
2022/09/15 09:21:36;;;;;;;8.30;1.30;;;16.40;99.90;;;;;;5010195;28;20540;-78
2022/09/15 09:24:35;;;;;;;7.18;1.10;;;16.40;99.90;;;;;;4992681;28;20045;-79
2022/09/15 09:27:27;;;;;;;9.52;1.65;;;16.50;99.90;;;;;;5009662;28;20552;-79
2022/09/15 09:30:19;;;;;;;7.75;1.40;;;16.70;99.90;;;;;;5009954;28;20496;-80
2022/09/15 09:33:17;;;;;;;10.05;2.03;;;16.70;99.90;;;;;;4992217;28;20085;-78
2022/09/15 09:36:04;;;;;;;8.73;1.55;;;16.70;99.90;;;;;;4995490;28;20053;-78
2022/09/15 09:38:51;;;;;;;8.90;1.40;;;16.50;99.90;;;;;;4998938;28;20058;-78
2022/09/15 09:41:39;;;;;;;10.50;1.98;;;16.40;99.90;;;;;;4981973;28;20490;-77
2022/09/15 09:44:30;;;;;;;9.52;1.67;;;16.10;99.90;;;;;;5012687;28;20053;-77
2022/09/15 09:47:17;;;;;;;11.25;1.85;;;15.90;99.90;;;;;;5013443;28;20125;-77
2022/09/15 09:50:24;;;;;;;6.65;1.80;;;16.00;99.90;;;;;;5013914;28;20074;-76
2022/09/15 09:53:32;;;;;;;10.93;1.90;;;16.20;99.90;;;;;;4999274;28;20056;-77
2022/09/15 09:56:25;;;;;;;6.72;1.20;;;16.50;99.90;;;;;;4998887;28;20053;-78
2022/09/15 09:59:30;;;;;;;9.40;1.55;;;16.60;99.90;;;;;;5012952;28;20417;-76
2022/09/15 10:02:23;;;;;;;18.00;2.33;;;16.40;99.90;;;;;;4994653;28;20046;-75
2022/09/15 10:05:10;;;;;;;10.02;1.48;;;16.20;99.90;;;;;;4995195;28;20504;-76
2022/09/15 10:08:01;;;;;;;11.63;1.60;;;16.00;99.90;;;;;;4995249;28;20088;-76
2022/09/15 10:11:00;;;;;;;7.22;1.83;;;15.90;99.90;;;;;;4995996;28;20049;-77
2022/09/15 10:13:51;;;;;;;11.52;1.58;;;15.70;99.90;;;;;;5009788;28;20405;-77
2022/09/15 10:16:38;;;;;;;7.85;1.45;;;15.70;99.90;;;;;;5008134;28;20138;-76
2022/09/15 10:19:24;;;;;;;5.88;1.13;;;15.60;99.90;;;;;;4995495;28;20050;-77
2022/09/15 10:22:41;;;;;;;9.30;1.20;;;15.70;99.90;;;;;;5012905;28;20045;-77
2022/09/15 10:25:33;;;;;;;13.88;1.75;;;15.80;99.90;;;;;;5005936;28;20089;-78
2022/09/15 10:28:22;;;;;;;13.95;2.60;;;15.80;99.90;;;;;;4995168;28;20049;-80
2022/09/15 10:31:30;;;;;;;8.30;1.23;;;16.00;99.90;;;;;;5011765;28;20052;-78
2022/09/15 10:34:31;;;;;;;8.77;1.70;;;16.10;99.90;;;;;;5012478;28;20046;-77
2022/09/15 10:37:47;;;;;;;4.85;1.05;;;16.10;99.90;;;;;;4995428;28;20056;-76
2022/09/15 10:40:57;;;;;;;7.03;1.63;;;16.20;99.90;;;;;;5011597;28;20145;-77
2022/09/15 10:44:01;;;;;;;10.60;1.35;;;16.20;99.90;;;;;;5007865;28;20049;-78
2022/09/15 10:47:15;;;;;;;11.13;1.67;;;16.50;99.90;;;;;;4975544;28;20200;-78
2022/09/15 10:50:10;;;;;;;9.95;1.27;;;16.80;99.90;;;;;;5010777;28;20096;-78
2022/09/15 10:53:12;;;;;;;6.93;0.80;;;17.40;99.90;;;;;;4993126;28;20046;-78
2022/09/15 10:56:13;;;;;;;8.70;1.73;;;17.70;99.90;;;;;;5010769;28;20042;-79
2022/09/15 10:59:26;;;;;;;8.10;1.33;;;17.80;99.90;;;;;;5010927;28;20078;-79
2022/09/15 11:02:27;;;;;;;10.07;1.27;;;18.10;99.90;;;;;;4972455;28;20049;-78
2022/09/15 11:05:24;;;;;;;10.50;2.10;;;18.20;99.90;;;;;;5011341;28;20192;-79
2022/09/15 11:08:19;;;;;;;13.75;1.52;;;18.30;99.90;;;;;;4980613;28;20466;-78
2022/09/15 11:11:05;;;;;;;;;;;18.40;99.90;;;;;;5011317;28;20053;-77
2022/09/15 11:14:03;;;;;;;4.78;0.77;;;18.30;99.90;;;;;;5013367;28;20032;-77
2022/09/15 11:17:22;;;;;;;6.55;1.20;;;18.30;99.90;;;;;;5011302;28;20475;-79
2022/09/15 11:20:22;;;;;;;6.45;1.23;;;18.30;99.90;;;;;;4997350;28;20041;-78
2022/09/15 11:23:31;;;;;;;6.05;0.93;;;18.20;99.90;;;;;;5011788;28;20038;-80
2022/09/15 11:26:28;;;;;;;8.07;1.55;;;18.10;99.90;;;;;;5012348;28;20153;-79
2022/09/15 11:29:26;;;;;;;5.60;1.08;;;17.90;99.90;;;;;;5011053;28;20050;-78
2022/09/15 11:32:24;;;;;;;6.90;1.17;;;17.80;99.90;;;;;;5002893;28;20091;-78
2022/09/15 11:35:31;;;;;;;9.68;1.00;;;17.80;99.90;;;;;;5010778;28;20050;-77
2022/09/15 11:38:34;;;;;;;7.18;1.73;;;17.80;99.90;;;;;;5011249;28;20058;-78
2022/09/15 11:41:33;;;;;;;9.20;1.70;;;17.70;99.90;;;;;;4997566;28;20046;-78
2022/09/15 11:44:30;;;;;;;6.07;0.95;;;18.00;99.90;;;;;;5012812;28;20038;-78
2022/09/15 11:47:25;;;;;;;8.48;1.90;;;18.10;99.90;;;;;;4993754;28;20050;-79
2022/09/15 11:50:23;;;;;;;9.20;1.67;;;18.00;99.90;;;;;;5011428;28;20089;-77
2022/09/15 11:53:18;;;;;;;9.50;1.83;;;17.90;99.90;;;;;;4996032;28;20085;-77
2022/09/15 11:56:25;;;;;;;4.00;0.80;;;18.30;99.90;;;;;;4992547;28;20053;-78
2022/09/15 11:59:25;;;;;;;9.93;1.60;;;18.80;99.90;;;;;;4981389;28;20058;-78
2022/09/15 12:02:23;;;;;;;8.98;1.50;;;19.40;99.90;;;;;;4992449;28;20050;-78
2022/09/15 12:05:19;;;;;;;9.15;1.20;;;19.80;99.10;;;;;;5011839;28;20132;-79
2022/09/15 12:08:18;;;;;;;8.05;1.38;;;21.10;98.40;;;;;;4980751;28;20096;-78
2022/09/15 12:11:10;;;;;;;8.45;1.20;;;21.70;97.10;;;;;;4979772;28;20445;-79
2022/09/15 12:13:58;;;;;;;6.50;0.88;;;21.50;96.00;;;;;;4981797;28;20397;-79
2022/09/15 12:16:47;;;;;;;6.07;0.80;;;21.30;95.00;;;;;;5010459;28;20053;-78
2022/09/15 12:19:50;;;;;;;6.90;0.90;;;21.00;94.80;;;;;;5009892;28;20064;-78
2022/09/15 12:22:52;;;;;;;4.75;1.13;;;20.80;94.60;;;;;;4992961;28;20050;-79
2022/09/15 12:26:13;;;;;;;6.07;1.10;;;20.60;94.80;;;;;;5011543;28;20049;-78
2022/09/15 12:29:02;;;;;;;8.48;1.30;;;20.30;94.90;;;;;;4996337;28;20046;-78
2022/09/15 12:32:25;;;;;;;7.88;1.40;;;20.10;95.40;;;;;;4992989;28;20058;-79
2022/09/15 12:35:14;;;;;;;7.65;1.02;;;20.00;95.80;;;;;;4991919;28;20057;-78
2022/09/15 12:38:00;;;;;;;9.55;1.80;;;19.90;95.30;;;;;;4992189;28;20444;-79
2022/09/15 12:40:57;;;;;;;5.32;1.35;;;19.90;95.30;;;;;;4996304;28;20061;-78
2022/09/15 12:43:52;;;;;;;7.50;1.10;;;20.10;95.20;;;;;;4992359;28;20042;-77
2022/09/15 12:46:38;;;;;;;8.43;1.83;;;20.40;95.20;;;;;;4980950;28;20045;-79
2022/09/15 12:49:35;;;;;;;16.55;2.28;;;19.90;96.10;;;;;;4998191;28;20050;-78
2022/09/15 12:52:24;;;;;;;12.13;1.80;;;19.10;99.30;;;;;;5011672;28;20046;-80
2022/09/15 12:55:18;;;;;;;11.52;2.17;;;18.30;99.90;;;;;;5009764;28;20064;-77
2022/09/15 12:58:14;;;;;;;9.70;2.03;;;17.90;99.90;;;;;;4983483;28;20053;-78
2022/09/15 13:01:21;;;;;;;8.85;1.52;;;17.50;99.90;;;;;;5010051;28;20050;-77
2022/09/15 13:04:22;;;;;;;10.75;1.67;;;17.50;99.90;;;;;;5010851;28;20041;-78
2022/09/15 13:07:14;;;;;;;9.23;1.67;;;17.60;99.90;;;;;;4993032;28;20524;-77
2022/09/15 13:10:12;;;;;;;8.40;1.30;;;17.50;99.90;;;;;;4995046;28;20057;-77
2022/09/15 13:13:38;;;;;;;10.15;1.90;;;17.20;99.90;;;;;;4983372;28;20085;-78
2022/09/15 13:16:35;;;;;;;14.07;1.48;;;17.10;99.90;;;;;;4970675;28;20045;-78
2022/09/15 13:19:45;;;;;;;8.38;2.33;;;17.00;99.90;;;;;;4983357;28;20072;-76
2022/09/15 13:22:48;;;;;;;12.75;1.95;;;16.90;99.90;;;;;;4997189;28;20050;-77
2022/09/15 13:25:36;;;;;;;12.63;2.67;;;16.70;99.90;;;;;;5013319;28;20046;-77
2022/09/15 13:28:24;;;;;;;9.50;1.58;;;16.40;99.90;;;;;;5013461;28;20136;-75
2022/09/15 13:31:23;;;;;;;10.10;1.90;;;16.10;99.90;;;;;;4995996;28;20057;-77
2022/09/15 13:34:53;;;;;;;11.80;1.70;;;15.90;99.90;;;;;;4995739;28;20050;-75
2022/09/15 13:38:04;;;;;;;7.60;0.90;;;15.90;99.90;;;;;;5013575;28;20069;-76
2022/09/15 13:41:35;;;;;;;4.82;0.80;;;15.90;99.90;;;;;;4983070;28;20140;-76
2022/09/15 13:44:37;;;;;;;5.75;1.20;;;15.90;99.90;;;;;;5013272;28;20045;-77
2022/09/15 13:47:44;;;;;;;6.40;1.20;;;15.80;99.90;;;;;;5013480;28;20140;-78
2022/09/15 13:50:41;;;;;;;10.98;2.33;;;15.70;99.90;;;;;;5012659;28;20501;-76
2022/09/15 13:54:01;;;;;;;6.95;1.45;;;15.50;99.90;;;;;;5013144;28;20050;-78
2022/09/15 13:56:47;;;;;;;7.10;1.02;;;15.50;99.90;;;;;;4982136;28;20057;-77
2022/09/15 13:59:34;;;;;;;4.25;1.13;;;15.30;99.90;;;;;;4983260;28;20045;-77
2022/09/15 14:02:20;;;;;;;9.38;1.52;;;15.40;99.90;;;;;;5014537;28;20459;-77
2022/09/15 14:05:07;;;;;;;8.07;1.63;;;15.40;99.90;;;;;;4996226;28;20519;-78
2022/09/15 14:08:10;;;;;;;10.88;2.00;;;15.50;99.90;;;;;;4995212;28;20494;-79
2022/09/15 14:11:05;;;;;;;7.75;1.52;;;16.00;99.90;;;;;;5012208;28;20049;-78
2022/09/15 14:13:53;;;;;;;6.78;1.40;;;16.20;99.90;;;;;;4994478;28;20054;-77
2022/09/15 14:16:48;;;;;;;5.45;1.08;;;16.40;99.90;;;;;;5012131;28;20080;-78
2022/09/15 14:19:37;;;;;;;6.93;1.10;;;16.50;99.90;;;;;;5012449;28;20042;-77
2022/09/15 14:22:27;;;;;;;13.35;2.17;;;16.50;99.90;;;;;;4994669;28;20285;-79
2022/09/15 14:25:18;;;;;;;21.75;2.90;;;16.20;99.90;;;;;;5011234;28;20564;-77
2022/09/15 14:28:05;;;;;;;12.02;2.15;;;16.00;99.90;;;;;;4995212;28;20052;-76
2022/09/15 14:30:52;;;;;;;12.60;2.40;;;16.00;99.90;;;;;;4994804;28;20128;-75
2022/09/15 14:33:39;;;;;;;9.23;1.30;;;16.00;99.90;;;;;;4995036;28;20045;-76
2022/09/15 14:36:31;;;;;;;9.25;1.17;;;16.10;99.90;;;;;;4998225;28;20573;-77
2022/09/15 14:39:22;;;;;;;10.38;2.15;;;16.20;99.90;;;;;;5012534;28;20049;-79
2022/09/15 14:42:20;;;;;;;10.80;1.33;;;16.30;99.90;;;;;;5012393;28;20151;-80
2022/09/15 14:45:09;;;;;;;6.55;1.27;;;18.00;99.90;;;;;;5013423;28;20152;-76
2022/09/15 14:48:00;;;;;;;12.18;1.70;;;20.20;99.90;;;;;;4996544;28;20050;-77
2022/09/15 14:51:07;;;;;;;8.65;1.20;;;21.60;99.50;;;;;;5015187;28;20045;-78
2022/09/15 14:53:58;;;;;;;5.53;1.15;;;23.00;96.30;;;;;;5012924;28;20084;-78